sensor_id;sensor_type;location;lat;lon;timestamp;temperature;humidity
15259;DHT22;34462;51.368;12.364;2022-08-06T00:02:28;18.10;99.90
15259;DHT22;34462;51.368;12.364;2022-08-06T00:05:02;18.10;99.90
15259;DHT22;34462;51.368;12.364;2022-08-06T00:07:32;18.00;99.90
15259;DHT22;34462;51.368;12.364;2022-08-06T00:10:10;18.00;99.90
15259;DHT22;34462;51.368;12.364;2022-08-06T00:12:39;17.90;99.90
15259;DHT22;34462;51.368;12.364;2022-08-06T00:15:08;17.90;99.90
15259;DHT22;34462;51.368;12.364;2022-08-06T00:17:41;17.90;99.90
15259;DHT22;34462;51.368;12.364;2022-08-06T00:20:10;17.90;99.90
15259;DHT22;34462;51.368;12.364;2022-08-06T00:22:57;17.80;99.90
15259;DHT22;34462;51.368;12.364;2022-08-06T00:25:27;17.70;99.90
15259;DHT22;34462;51.368;12.364;2022-08-06T00:28:15;17.70;99.90
15259;DHT22;34462;51.368;12.364;2022-08-06T00:30:46;17.80;99.90
15259;DHT22;34462;51.368;12.364;2022-08-06T00:33:15;17.70;99.90
15259;DHT22;34462;51.368;12.364;2022-08-06T00:35:44;17.60;99.90
15259;DHT22;34462;51.368;12.364;2022-08-06T00:38:12;17.60;99.90
15259;DHT22;34462;51.368;12.364;2022-08-06T00:40:41;17.50;99.90
15259;DHT22;34462;51.368;12.364;2022-08-06T00:43:24;17.50;99.90
15259;DHT22;34462;51.368;12.364;2022-08-06T00:46:05;17.40;99.90
15259;DHT22;34462;51.368;12.364;2022-08-06T00:48:43;17.30;99.90
15259;DHT22;34462;51.368;12.364;2022-08-06T00:51:20;17.20;99.90
15259;DHT22;34462;51.368;12.364;2022-08-06T00:53:49;17.10;99.90
15259;DHT22;34462;51.368;12.364;2022-08-06T00:56:24;17.10;99.90
15259;DHT22;34462;51.368;12.364;2022-08-06T00:58:56;17.10;99.90
15259;DHT22;34462;51.368;12.364;2022-08-06T01:01:29;17.10;99.90
15259;DHT22;34462;51.368;12.364;2022-08-06T01:04:18;17.10;99.90
15259;DHT22;34462;51.368;12.364;2022-08-06T01:06:52;17.00;99.90
15259;DHT22;34462;51.368;12.364;2022-08-06T01:09:24;16.90;99.90
15259;DHT22;34462;51.368;12.364;2022-08-06T01:11:57;16.80;99.90
15259;DHT22;34462;51.368;12.364;2022-08-06T01:14:29;16.80;99.90
15259;DHT22;34462;51.368;12.364;2022-08-06T01:17:08;16.70;99.90
15259;DHT22;34462;51.368;12.364;2022-08-06T01:20:02;16.70;99.90
15259;DHT22;34462;51.368;12.364;2022-08-06T01:23:14;16.70;99.90
15259;DHT22;34462;51.368;12.364;2022-08-06T01:29:11;16.60;99.90
15259;DHT22;34462;51.368;12.364;2022-08-06T01:31:50;16.50;99.90
15259;DHT22;34462;51.368;12.364;2022-08-06T01:34:25;16.40;99.90
15259;DHT22;34462;51.368;12.364;2022-08-06T01:37:03;16.40;99.90
15259;DHT22;34462;51.368;12.364;2022-08-06T01:39:37;16.50;99.90
15259;DHT22;34462;51.368;12.364;2022-08-06T01:42:30;16.50;99.90
15259;DHT22;34462;51.368;12.364;2022-08-06T01:45:08;16.40;99.90
15259;DHT22;34462;51.368;12.364;2022-08-06T01:47:41;16.40;99.90
15259;DHT22;34462;51.368;12.364;2022-08-06T01:50:25;16.30;99.90
15259;DHT22;34462;51.368;12.364;2022-08-06T01:52:56;16.30;99.90
15259;DHT22;34462;51.368;12.364;2022-08-06T01:55:28;16.30;99.90
15259;DHT22;34462;51.368;12.364;2022-08-06T01:58:22;16.20;99.90
15259;DHT22;34462;51.368;12.364;2022-08-06T02:00:59;16.20;99.90
15259;DHT22;34462;51.368;12.364;2022-08-06T02:03:31;16.20;99.90
15259;DHT22;34462;51.368;12.364;2022-08-06T02:06:21;16.10;99.90
15259;DHT22;34462;51.368;12.364;2022-08-06T02:08:57;16.20;99.90
15259;DHT22;34462;51.368;12.364;2022-08-06T02:11:56;16.10;99.90
15259;DHT22;34462;51.368;12.364;2022-08-06T02:14:36;16.00;99.90
15259;DHT22;34462;51.368;12.364;2022-08-06T02:17:11;16.10;99.90
15259;DHT22;34462;51.368;12.364;2022-08-06T02:19:45;16.00;99.90
15259;DHT22;34462;51.368;12.364;2022-08-06T02:22:38;16.00;99.90
15259;DHT22;34462;51.368;12.364;2022-08-06T02:25:11;15.90;99.90
15259;DHT22;34462;51.368;12.364;2022-08-06T02:27:57;15.90;99.90
15259;DHT22;34462;51.368;12.364;2022-08-06T02:30:31;16.00;99.90
15259;DHT22;34462;51.368;12.364;2022-08-06T02:33:10;15.90;99.90
15259;DHT22;34462;51.368;12.364;2022-08-06T02:35:47;16.00;99.90
15259;DHT22;34462;51.368;12.364;2022-08-06T02:38:22;15.90;99.90
15259;DHT22;34462;51.368;12.364;2022-08-06T02:40:59;15.90;99.90
15259;DHT22;34462;51.368;12.364;2022-08-06T02:43:35;15.90;99.90
15259;DHT22;34462;51.368;12.364;2022-08-06T02:46:11;15.80;99.90
15259;DHT22;34462;51.368;12.364;2022-08-06T02:48:47;15.70;99.90
15259;DHT22;34462;51.368;12.364;2022-08-06T02:51:26;15.70;99.90
15259;DHT22;34462;51.368;12.364;2022-08-06T02:54:21;15.70;99.90
15259;DHT22;34462;51.368;12.364;2022-08-06T02:57:00;15.60;99.90
15259;DHT22;34462;51.368;12.364;2022-08-06T02:59:39;15.60;99.90
15259;DHT22;34462;51.368;12.364;2022-08-06T03:02:22;15.50;99.90
15259;DHT22;34462;51.368;12.364;2022-08-06T03:04:56;15.50;99.90
15259;DHT22;34462;51.368;12.364;2022-08-06T03:07:30;15.50;99.90
15259;DHT22;34462;51.368;12.364;2022-08-06T03:10:01;15.50;99.90
15259;DHT22;34462;51.368;12.364;2022-08-06T03:12:39;15.40;99.90
15259;DHT22;34462;51.368;12.364;2022-08-06T03:15:13;15.40;99.90
15259;DHT22;34462;51.368;12.364;2022-08-06T03:18:05;15.30;99.90
15259;DHT22;34462;51.368;12.364;2022-08-06T03:20:39;15.30;99.90
15259;DHT22;34462;51.368;12.364;2022-08-06T03:23:11;15.30;99.90
15259;DHT22;34462;51.368;12.364;2022-08-06T03:25:43;15.20;99.90
15259;DHT22;34462;51.368;12.364;2022-08-06T03:28:14;15.20;99.90
15259;DHT22;34462;51.368;12.364;2022-08-06T03:30:48;15.20;99.90
15259;DHT22;34462;51.368;12.364;2022-08-06T03:33:22;15.20;99.90
15259;DHT22;34462;51.368;12.364;2022-08-06T03:36:09;15.10;99.90
15259;DHT22;34462;51.368;12.364;2022-08-06T03:38:46;15.10;99.90
15259;DHT22;34462;51.368;12.364;2022-08-06T03:41:23;15.20;99.90
15259;DHT22;34462;51.368;12.364;2022-08-06T03:44:05;15.10;99.90
15259;DHT22;34462;51.368;12.364;2022-08-06T03:46:42;15.10;99.90
15259;DHT22;34462;51.368;12.364;2022-08-06T03:49:19;15.00;99.90
15259;DHT22;34462;51.368;12.364;2022-08-06T03:52:09;15.00;99.90
15259;DHT22;34462;51.368;12.364;2022-08-06T03:54:44;15.00;99.90
15259;DHT22;34462;51.368;12.364;2022-08-06T03:57:19;15.00;99.90
15259;DHT22;34462;51.368;12.364;2022-08-06T03:59:57;15.00;99.90
15259;DHT22;34462;51.368;12.364;2022-08-06T04:02:33;15.00;99.90
15259;DHT22;34462;51.368;12.364;2022-08-06T04:05:16;15.00;99.90
15259;DHT22;34462;51.368;12.364;2022-08-06T04:07:52;15.00;99.90
15259;DHT22;34462;51.368;12.364;2022-08-06T04:10:24;15.00;99.90
15259;DHT22;34462;51.368;12.364;2022-08-06T04:13:02;15.00;99.90
15259;DHT22;34462;51.368;12.364;2022-08-06T04:15:53;15.10;99.90
15259;DHT22;34462;51.368;12.364;2022-08-06T04:18:25;15.20;99.90
15259;DHT22;34462;51.368;12.364;2022-08-06T04:20:57;15.20;99.90
15259;DHT22;34462;51.368;12.364;2022-08-06T04:23:50;15.20;99.90
15259;DHT22;34462;51.368;12.364;2022-08-06T04:26:24;15.20;99.90
15259;DHT22;34462;51.368;12.364;2022-08-06T04:28:56;15.30;99.90
15259;DHT22;34462;51.368;12.364;2022-08-06T04:31:29;15.40;99.90
15259;DHT22;34462;51.368;12.364;2022-08-06T04:34:21;15.40;99.90
15259;DHT22;34462;51.368;12.364;2022-08-06T04:36:54;15.50;99.90
15259;DHT22;34462;51.368;12.364;2022-08-06T04:39:25;15.50;99.90
15259;DHT22;34462;51.368;12.364;2022-08-06T04:42:15;15.50;99.90
15259;DHT22;34462;51.368;12.364;2022-08-06T04:44:45;15.50;99.90
15259;DHT22;34462;51.368;12.364;2022-08-06T04:47:28;15.60;99.90
15259;DHT22;34462;51.368;12.364;2022-08-06T04:50:08;15.70;99.90
15259;DHT22;34462;51.368;12.364;2022-08-06T04:52:37;15.70;99.90
15259;DHT22;34462;51.368;12.364;2022-08-06T04:55:17;15.80;99.90
15259;DHT22;34462;51.368;12.364;2022-08-06T04:57:51;15.80;99.90
15259;DHT22;34462;51.368;12.364;2022-08-06T05:00:29;15.80;99.90
15259;DHT22;34462;51.368;12.364;2022-08-06T05:03:00;15.80;99.90
15259;DHT22;34462;51.368;12.364;2022-08-06T05:05:30;15.90;99.90
15259;DHT22;34462;51.368;12.364;2022-08-06T05:08:06;16.00;99.90
15259;DHT22;34462;51.368;12.364;2022-08-06T05:10:45;16.10;99.90
15259;DHT22;34462;51.368;12.364;2022-08-06T05:13:16;16.30;99.90
15259;DHT22;34462;51.368;12.364;2022-08-06T05:16:07;16.50;99.90
15259;DHT22;34462;51.368;12.364;2022-08-06T05:18:39;16.60;99.90
15259;DHT22;34462;51.368;12.364;2022-08-06T05:21:35;16.80;99.90
15259;DHT22;34462;51.368;12.364;2022-08-06T05:24:25;17.20;99.90
15259;DHT22;34462;51.368;12.364;2022-08-06T05:27:16;17.30;99.90
15259;DHT22;34462;51.368;12.364;2022-08-06T05:29:45;17.40;99.90
15259;DHT22;34462;51.368;12.364;2022-08-06T05:32:18;17.30;99.90
15259;DHT22;34462;51.368;12.364;2022-08-06T05:34:51;17.20;99.90
15259;DHT22;34462;51.368;12.364;2022-08-06T05:37:19;17.00;99.90
15259;DHT22;34462;51.368;12.364;2022-08-06T05:40:08;16.90;99.90
15259;DHT22;34462;51.368;12.364;2022-08-06T05:42:39;16.80;99.90
15259;DHT22;34462;51.368;12.364;2022-08-06T05:45:23;16.70;99.90
15259;DHT22;34462;51.368;12.364;2022-08-06T05:47:53;16.70;99.90
15259;DHT22;34462;51.368;12.364;2022-08-06T05:50:28;16.80;99.90
15259;DHT22;34462;51.368;12.364;2022-08-06T05:53:04;17.00;99.90
15259;DHT22;34462;51.368;12.364;2022-08-06T05:55:39;17.30;99.90
15259;DHT22;34462;51.368;12.364;2022-08-06T05:58:19;17.50;99.90
15259;DHT22;34462;51.368;12.364;2022-08-06T06:00:57;17.50;99.90
15259;DHT22;34462;51.368;12.364;2022-08-06T06:03:28;17.60;99.90
15259;DHT22;34462;51.368;12.364;2022-08-06T06:06:01;17.70;99.90
15259;DHT22;34462;51.368;12.364;2022-08-06T06:08:44;18.00;99.90
15259;DHT22;34462;51.368;12.364;2022-08-06T06:11:25;18.20;99.90
15259;DHT22;34462;51.368;12.364;2022-08-06T06:14:31;18.30;99.90
15259;DHT22;34462;51.368;12.364;2022-08-06T06:17:35;18.40;99.90
15259;DHT22;34462;51.368;12.364;2022-08-06T06:20:17;18.50;99.90
15259;DHT22;34462;51.368;12.364;2022-08-06T06:23:11;18.50;99.90
15259;DHT22;34462;51.368;12.364;2022-08-06T06:25:55;18.50;99.90
15259;DHT22;34462;51.368;12.364;2022-08-06T06:28:34;18.60;99.90
15259;DHT22;34462;51.368;12.364;2022-08-06T06:31:26;18.60;99.90
15259;DHT22;34462;51.368;12.364;2022-08-06T06:34:23;18.50;99.90
15259;DHT22;34462;51.368;12.364;2022-08-06T06:37:03;18.60;99.90
15259;DHT22;34462;51.368;12.364;2022-08-06T06:39:52;18.70;99.90
15259;DHT22;34462;51.368;12.364;2022-08-06T06:42:44;18.60;99.90
15259;DHT22;34462;51.368;12.364;2022-08-06T06:45:27;18.70;99.90
15259;DHT22;34462;51.368;12.364;2022-08-06T06:51:31;18.50;99.90
15259;DHT22;34462;51.368;12.364;2022-08-06T06:54:24;18.20;99.90
15259;DHT22;34462;51.368;12.364;2022-08-06T06:57:05;18.00;99.90
15259;DHT22;34462;51.368;12.364;2022-08-06T06:59:38;17.90;99.90
15259;DHT22;34462;51.368;12.364;2022-08-06T07:02:36;17.90;99.90
15259;DHT22;34462;51.368;12.364;2022-08-06T07:05:09;17.90;99.90
15259;DHT22;34462;51.368;12.364;2022-08-06T07:07:44;18.00;99.90
15259;DHT22;34462;51.368;12.364;2022-08-06T07:10:17;18.00;99.90
15259;DHT22;34462;51.368;12.364;2022-08-06T07:12:48;18.10;99.90
15259;DHT22;34462;51.368;12.364;2022-08-06T07:15:21;18.00;99.90
15259;DHT22;34462;51.368;12.364;2022-08-06T07:17:51;17.90;99.90
15259;DHT22;34462;51.368;12.364;2022-08-06T07:20:37;17.90;99.90
15259;DHT22;34462;51.368;12.364;2022-08-06T07:23:08;18.00;99.90
15259;DHT22;34462;51.368;12.364;2022-08-06T07:25:59;18.10;99.90
15259;DHT22;34462;51.368;12.364;2022-08-06T07:28:29;18.10;99.90
15259;DHT22;34462;51.368;12.364;2022-08-06T07:31:02;18.20;99.90
15259;DHT22;34462;51.368;12.364;2022-08-06T07:33:37;18.10;99.90
15259;DHT22;34462;51.368;12.364;2022-08-06T07:36:31;18.10;99.90
15259;DHT22;34462;51.368;12.364;2022-08-06T07:39:06;18.10;99.90
15259;DHT22;34462;51.368;12.364;2022-08-06T07:41:42;18.00;99.90
15259;DHT22;34462;51.368;12.364;2022-08-06T07:44:34;18.10;99.90
15259;DHT22;34462;51.368;12.364;2022-08-06T07:47:25;18.10;99.90
15259;DHT22;34462;51.368;12.364;2022-08-06T07:50:18;18.20;99.90
15259;DHT22;34462;51.368;12.364;2022-08-06T07:52:51;18.30;99.90
15259;DHT22;34462;51.368;12.364;2022-08-06T07:55:22;18.40;99.90
15259;DHT22;34462;51.368;12.364;2022-08-06T07:58:07;18.50;99.90
15259;DHT22;34462;51.368;12.364;2022-08-06T08:00:42;18.50;99.90
15259;DHT22;34462;51.368;12.364;2022-08-06T08:03:16;18.50;99.90
15259;DHT22;34462;51.368;12.364;2022-08-06T08:06:24;18.60;99.90
15259;DHT22;34462;51.368;12.364;2022-08-06T08:09:01;18.50;99.90
15259;DHT22;34462;51.368;12.364;2022-08-06T08:11:37;18.50;99.90
15259;DHT22;34462;51.368;12.364;2022-08-06T08:14:29;18.70;99.90
15259;DHT22;34462;51.368;12.364;2022-08-06T08:16:58;18.70;99.90
15259;DHT22;34462;51.368;12.364;2022-08-06T08:19:28;18.70;99.90
15259;DHT22;34462;51.368;12.364;2022-08-06T08:22:04;18.80;99.90
15259;DHT22;34462;51.368;12.364;2022-08-06T08:24:36;18.80;99.90
15259;DHT22;34462;51.368;12.364;2022-08-06T08:27:06;18.80;99.90
15259;DHT22;34462;51.368;12.364;2022-08-06T08:29:49;18.90;99.90
15259;DHT22;34462;51.368;12.364;2022-08-06T08:32:23;18.90;99.90
15259;DHT22;34462;51.368;12.364;2022-08-06T08:34:52;18.90;99.90
15259;DHT22;34462;51.368;12.364;2022-08-06T08:37:23;18.90;99.90
15259;DHT22;34462;51.368;12.364;2022-08-06T08:39:53;18.90;99.90
15259;DHT22;34462;51.368;12.364;2022-08-06T08:42:28;18.90;99.90
15259;DHT22;34462;51.368;12.364;2022-08-06T08:45:05;18.90;99.90
15259;DHT22;34462;51.368;12.364;2022-08-06T08:47:43;19.00;99.90
15259;DHT22;34462;51.368;12.364;2022-08-06T08:50:26;19.10;99.90
15259;DHT22;34462;51.368;12.364;2022-08-06T08:53:00;19.10;99.90
15259;DHT22;34462;51.368;12.364;2022-08-06T08:55:32;19.00;99.90
15259;DHT22;34462;51.368;12.364;2022-08-06T08:58:21;19.10;99.90
15259;DHT22;34462;51.368;12.364;2022-08-06T09:01:09;19.40;99.90
15259;DHT22;34462;51.368;12.364;2022-08-06T09:04:02;19.40;99.90
15259;DHT22;34462;51.368;12.364;2022-08-06T09:06:31;19.40;99.90
15259;DHT22;34462;51.368;12.364;2022-08-06T09:09:05;19.50;99.90
15259;DHT22;34462;51.368;12.364;2022-08-06T09:11:43;19.50;99.90
15259;DHT22;34462;51.368;12.364;2022-08-06T09:14:33;19.70;99.90
15259;DHT22;34462;51.368;12.364;2022-08-06T09:17:04;19.80;99.90
15259;DHT22;34462;51.368;12.364;2022-08-06T09:19:38;19.80;99.90
15259;DHT22;34462;51.368;12.364;2022-08-06T09:22:08;19.90;99.90
15259;DHT22;34462;51.368;12.364;2022-08-06T09:24:38;20.00;99.90
15259;DHT22;34462;51.368;12.364;2022-08-06T09:27:09;20.00;99.90
15259;DHT22;34462;51.368;12.364;2022-08-06T09:30:00;20.30;99.90
15259;DHT22;34462;51.368;12.364;2022-08-06T09:32:49;20.50;99.90
15259;DHT22;34462;51.368;12.364;2022-08-06T09:35:24;20.70;99.90
15259;DHT22;34462;51.368;12.364;2022-08-06T09:38:12;20.50;99.90
15259;DHT22;34462;51.368;12.364;2022-08-06T09:41:01;20.30;99.90
15259;DHT22;34462;51.368;12.364;2022-08-06T09:43:34;20.20;99.90
15259;DHT22;34462;51.368;12.364;2022-08-06T09:46:36;20.30;99.90
15259;DHT22;34462;51.368;12.364;2022-08-06T09:49:07;20.50;99.90
15259;DHT22;34462;51.368;12.364;2022-08-06T09:52:16;20.60;99.90
15259;DHT22;34462;51.368;12.364;2022-08-06T09:54:48;20.70;99.90
15259;DHT22;34462;51.368;12.364;2022-08-06T09:57:21;20.80;99.90
15259;DHT22;34462;51.368;12.364;2022-08-06T10:00:05;20.80;99.90
15259;DHT22;34462;51.368;12.364;2022-08-06T10:02:41;20.60;99.90
15259;DHT22;34462;51.368;12.364;2022-08-06T10:05:17;20.60;99.90
15259;DHT22;34462;51.368;12.364;2022-08-06T10:08:02;20.80;99.90
15259;DHT22;34462;51.368;12.364;2022-08-06T10:10:44;21.00;99.90
15259;DHT22;34462;51.368;12.364;2022-08-06T10:13:19;21.20;99.90
15259;DHT22;34462;51.368;12.364;2022-08-06T10:15:51;21.20;99.90
15259;DHT22;34462;51.368;12.364;2022-08-06T10:18:32;20.90;99.90
15259;DHT22;34462;51.368;12.364;2022-08-06T10:21:24;20.90;99.90
15259;DHT22;34462;51.368;12.364;2022-08-06T10:24:09;20.90;99.90
15259;DHT22;34462;51.368;12.364;2022-08-06T10:26:40;21.10;99.90
15259;DHT22;34462;51.368;12.364;2022-08-06T10:29:11;21.30;99.90
15259;DHT22;34462;51.368;12.364;2022-08-06T10:31:44;21.30;99.90
15259;DHT22;34462;51.368;12.364;2022-08-06T10:34:23;21.50;99.90
15259;DHT22;34462;51.368;12.364;2022-08-06T10:37:01;21.80;99.90
15259;DHT22;34462;51.368;12.364;2022-08-06T10:39:56;22.00;99.90
15259;DHT22;34462;51.368;12.364;2022-08-06T10:42:36;22.10;99.90
15259;DHT22;34462;51.368;12.364;2022-08-06T10:45:09;22.00;99.90
15259;DHT22;34462;51.368;12.364;2022-08-06T10:47:45;21.80;99.90
15259;DHT22;34462;51.368;12.364;2022-08-06T10:50:34;21.40;99.90
15259;DHT22;34462;51.368;12.364;2022-08-06T10:53:20;21.10;99.90
15259;DHT22;34462;51.368;12.364;2022-08-06T10:56:11;21.00;99.90
15259;DHT22;34462;51.368;12.364;2022-08-06T10:58:47;21.00;99.90
15259;DHT22;34462;51.368;12.364;2022-08-06T11:01:20;21.10;99.90
15259;DHT22;34462;51.368;12.364;2022-08-06T11:04:23;21.20;99.90
15259;DHT22;34462;51.368;12.364;2022-08-06T11:07:32;21.20;99.90
15259;DHT22;34462;51.368;12.364;2022-08-06T11:11:08;21.30;99.90
15259;DHT22;34462;51.368;12.364;2022-08-06T11:13:59;21.20;99.90
15259;DHT22;34462;51.368;12.364;2022-08-06T11:16:54;20.90;99.90
15259;DHT22;34462;51.368;12.364;2022-08-06T11:19:44;20.90;99.90
15259;DHT22;34462;51.368;12.364;2022-08-06T11:22:34;20.90;99.90
15259;DHT22;34462;51.368;12.364;2022-08-06T11:25:06;20.90;99.90
15259;DHT22;34462;51.368;12.364;2022-08-06T11:27:53;21.10;99.90
15259;DHT22;34462;51.368;12.364;2022-08-06T11:30:40;21.30;99.90
15259;DHT22;34462;51.368;12.364;2022-08-06T11:33:14;21.50;99.90
15259;DHT22;34462;51.368;12.364;2022-08-06T11:35:46;21.60;99.90
15259;DHT22;34462;51.368;12.364;2022-08-06T11:38:56;21.50;99.90
15259;DHT22;34462;51.368;12.364;2022-08-06T11:41:53;21.50;99.90
15259;DHT22;34462;51.368;12.364;2022-08-06T11:44:26;21.40;99.90
15259;DHT22;34462;51.368;12.364;2022-08-06T11:47:08;21.50;99.90
15259;DHT22;34462;51.368;12.364;2022-08-06T11:49:41;21.50;99.90
15259;DHT22;34462;51.368;12.364;2022-08-06T11:52:41;21.60;99.90
15259;DHT22;34462;51.368;12.364;2022-08-06T11:55:12;21.90;99.90
15259;DHT22;34462;51.368;12.364;2022-08-06T11:57:50;22.00;99.90
15259;DHT22;34462;51.368;12.364;2022-08-06T12:00:56;21.80;99.90
15259;DHT22;34462;51.368;12.364;2022-08-06T12:03:36;21.50;99.90
15259;DHT22;34462;51.368;12.364;2022-08-06T12:06:19;21.40;99.90
15259;DHT22;34462;51.368;12.364;2022-08-06T12:09:10;21.40;99.90
15259;DHT22;34462;51.368;12.364;2022-08-06T12:11:49;21.50;99.90
15259;DHT22;34462;51.368;12.364;2022-08-06T12:14:38;21.50;99.90
15259;DHT22;34462;51.368;12.364;2022-08-06T12:17:16;21.70;99.90
15259;DHT22;34462;51.368;12.364;2022-08-06T12:19:46;21.90;99.90
15259;DHT22;34462;51.368;12.364;2022-08-06T12:22:29;22.20;99.90
15259;DHT22;34462;51.368;12.364;2022-08-06T12:25:02;22.40;99.90
15259;DHT22;34462;51.368;12.364;2022-08-06T12:27:36;22.60;99.90
15259;DHT22;34462;51.368;12.364;2022-08-06T12:30:15;22.50;99.90
15259;DHT22;34462;51.368;12.364;2022-08-06T12:33:04;22.30;99.90
15259;DHT22;34462;51.368;12.364;2022-08-06T12:35:49;22.20;99.90
15259;DHT22;34462;51.368;12.364;2022-08-06T12:38:18;22.00;99.90
15259;DHT22;34462;51.368;12.364;2022-08-06T12:40:55;22.10;99.90
15259;DHT22;34462;51.368;12.364;2022-08-06T12:43:27;22.10;99.90
15259;DHT22;34462;51.368;12.364;2022-08-06T12:46:13;22.10;99.90
15259;DHT22;34462;51.368;12.364;2022-08-06T12:48:48;22.10;99.90
15259;DHT22;34462;51.368;12.364;2022-08-06T12:51:19;22.00;99.90
15259;DHT22;34462;51.368;12.364;2022-08-06T12:53:57;22.20;99.90
15259;DHT22;34462;51.368;12.364;2022-08-06T12:56:31;22.20;99.90
15259;DHT22;34462;51.368;12.364;2022-08-06T12:59:06;22.30;99.90
15259;DHT22;34462;51.368;12.364;2022-08-06T13:01:50;22.20;99.90
15259;DHT22;34462;51.368;12.364;2022-08-06T13:04:42;22.00;99.90
15259;DHT22;34462;51.368;12.364;2022-08-06T13:07:15;22.10;99.90
15259;DHT22;34462;51.368;12.364;2022-08-06T13:10:08;22.00;99.90
15259;DHT22;34462;51.368;12.364;2022-08-06T13:13:00;21.90;99.90
15259;DHT22;34462;51.368;12.364;2022-08-06T13:15:59;22.00;99.90
15259;DHT22;34462;51.368;12.364;2022-08-06T13:18:30;22.00;99.90
15259;DHT22;34462;51.368;12.364;2022-08-06T13:21:16;22.10;99.90
15259;DHT22;34462;51.368;12.364;2022-08-06T13:23:48;22.00;99.90
15259;DHT22;34462;51.368;12.364;2022-08-06T13:26:20;22.00;99.90
15259;DHT22;34462;51.368;12.364;2022-08-06T13:29:16;22.10;99.90
15259;DHT22;34462;51.368;12.364;2022-08-06T13:32:07;22.10;99.90
15259;DHT22;34462;51.368;12.364;2022-08-06T13:34:59;22.10;99.90
15259;DHT22;34462;51.368;12.364;2022-08-06T13:37:45;22.20;99.90
15259;DHT22;34462;51.368;12.364;2022-08-06T13:40:38;22.10;99.90
15259;DHT22;34462;51.368;12.364;2022-08-06T13:43:13;22.10;99.90
15259;DHT22;34462;51.368;12.364;2022-08-06T13:46:07;22.20;99.90
15259;DHT22;34462;51.368;12.364;2022-08-06T13:48:46;22.30;99.90
15259;DHT22;34462;51.368;12.364;2022-08-06T13:51:20;22.20;99.90
15259;DHT22;34462;51.368;12.364;2022-08-06T13:53:54;22.20;99.90
15259;DHT22;34462;51.368;12.364;2022-08-06T13:56:25;22.10;99.90
15259;DHT22;34462;51.368;12.364;2022-08-06T13:58:56;22.10;99.90
15259;DHT22;34462;51.368;12.364;2022-08-06T14:01:26;22.10;99.90
15259;DHT22;34462;51.368;12.364;2022-08-06T14:04:12;22.10;99.90
15259;DHT22;34462;51.368;12.364;2022-08-06T14:06:44;22.20;99.90
15259;DHT22;34462;51.368;12.364;2022-08-06T14:09:15;22.20;99.90
15259;DHT22;34462;51.368;12.364;2022-08-06T14:11:50;22.20;99.90
15259;DHT22;34462;51.368;12.364;2022-08-06T14:14:22;22.10;99.90
15259;DHT22;34462;51.368;12.364;2022-08-06T14:16:56;22.20;99.90
15259;DHT22;34462;51.368;12.364;2022-08-06T14:19:28;22.10;99.90
15259;DHT22;34462;51.368;12.364;2022-08-06T14:22:16;22.10;99.90
15259;DHT22;34462;51.368;12.364;2022-08-06T14:24:51;22.10;99.90
15259;DHT22;34462;51.368;12.364;2022-08-06T14:27:20;22.00;99.90
15259;DHT22;34462;51.368;12.364;2022-08-06T14:29:52;22.00;99.90
15259;DHT22;34462;51.368;12.364;2022-08-06T14:32:42;21.80;99.90
15259;DHT22;34462;51.368;12.364;2022-08-06T14:35:11;21.80;99.90
15259;DHT22;34462;51.368;12.364;2022-08-06T14:37:40;21.80;99.90
15259;DHT22;34462;51.368;12.364;2022-08-06T14:40:22;21.80;99.90
15259;DHT22;34462;51.368;12.364;2022-08-06T14:43:25;22.00;99.90
15259;DHT22;34462;51.368;12.364;2022-08-06T14:46:23;22.00;99.90
15259;DHT22;34462;51.368;12.364;2022-08-06T14:48:54;22.10;99.90
15259;DHT22;34462;51.368;12.364;2022-08-06T14:51:24;22.10;99.90
15259;DHT22;34462;51.368;12.364;2022-08-06T14:54:13;22.10;99.90
15259;DHT22;34462;51.368;12.364;2022-08-06T14:56:42;22.10;99.90
15259;DHT22;34462;51.368;12.364;2022-08-06T14:59:19;22.10;99.90
15259;DHT22;34462;51.368;12.364;2022-08-06T15:01:49;22.10;99.90
15259;DHT22;34462;51.368;12.364;2022-08-06T15:04:19;22.10;99.90
15259;DHT22;34462;51.368;12.364;2022-08-06T15:06:51;22.10;99.90
15259;DHT22;34462;51.368;12.364;2022-08-06T15:09:25;22.10;99.90
15259;DHT22;34462;51.368;12.364;2022-08-06T15:12:15;22.00;99.90
15259;DHT22;34462;51.368;12.364;2022-08-06T15:15:04;22.00;99.90
15259;DHT22;34462;51.368;12.364;2022-08-06T15:17:39;21.90;99.90
15259;DHT22;34462;51.368;12.364;2022-08-06T15:20:28;22.00;99.90
15259;DHT22;34462;51.368;12.364;2022-08-06T15:22:58;22.00;99.90
15259;DHT22;34462;51.368;12.364;2022-08-06T15:25:26;22.10;99.90
15259;DHT22;34462;51.368;12.364;2022-08-06T15:28:15;22.10;99.90
15259;DHT22;34462;51.368;12.364;2022-08-06T15:30:45;22.10;99.90
15259;DHT22;34462;51.368;12.364;2022-08-06T15:33:14;22.00;99.90
15259;DHT22;34462;51.368;12.364;2022-08-06T15:35:44;21.90;99.90
15259;DHT22;34462;51.368;12.364;2022-08-06T15:38:23;21.90;99.90
15259;DHT22;34462;51.368;12.364;2022-08-06T15:40:53;22.00;99.90
15259;DHT22;34462;51.368;12.364;2022-08-06T15:43:22;22.00;99.90
15259;DHT22;34462;51.368;12.364;2022-08-06T15:45:51;22.00;99.90
15259;DHT22;34462;51.368;12.364;2022-08-06T15:48:24;21.90;99.90
15259;DHT22;34462;51.368;12.364;2022-08-06T15:50:56;21.90;99.90
15259;DHT22;34462;51.368;12.364;2022-08-06T15:53:45;21.90;99.90
15259;DHT22;34462;51.368;12.364;2022-08-06T15:56:22;21.80;99.90
15259;DHT22;34462;51.368;12.364;2022-08-06T15:59:11;21.70;99.90
15259;DHT22;34462;51.368;12.364;2022-08-06T16:01:45;21.80;99.90
15259;DHT22;34462;51.368;12.364;2022-08-06T16:04:28;21.80;99.90
15259;DHT22;34462;51.368;12.364;2022-08-06T16:07:04;21.80;99.90
15259;DHT22;34462;51.368;12.364;2022-08-06T16:09:34;21.80;99.90
15259;DHT22;34462;51.368;12.364;2022-08-06T16:12:23;21.70;99.90
15259;DHT22;34462;51.368;12.364;2022-08-06T16:14:52;21.60;99.90
15259;DHT22;34462;51.368;12.364;2022-08-06T16:17:25;21.60;99.90
15259;DHT22;34462;51.368;12.364;2022-08-06T16:20:14;21.50;99.90
15259;DHT22;34462;51.368;12.364;2022-08-06T16:22:49;21.50;99.90
15259;DHT22;34462;51.368;12.364;2022-08-06T16:25:18;21.50;99.90
15259;DHT22;34462;51.368;12.364;2022-08-06T16:27:48;21.40;99.90
15259;DHT22;34462;51.368;12.364;2022-08-06T16:30:18;21.40;99.90
15259;DHT22;34462;51.368;12.364;2022-08-06T16:32:47;21.30;99.90
15259;DHT22;34462;51.368;12.364;2022-08-06T16:35:16;21.40;99.90
15259;DHT22;34462;51.368;12.364;2022-08-06T16:37:49;21.30;99.90